BIENTÔT MET'MAP
version 2.0 !

Prévue avant fin octobre,
la nouvelle version sera
plus belle, plus complète
et hébergée sur un serveur
3 fois plus puissant...
et toujours gratuite !


Pas compatible ?
Essayez la version Mobile !

SE CONNECTER : | S'inscrire | Disclaimer | Découvrir Orbifly |
Code OACI :
LŽgende : VFR VFR Marginal IFR IFR Intensif IFR TrŽs Intensif
Visi :
Plafond :
>= 8 km
>= 3000ft
5 ˆ 8 km
1000 ˆ 3000 ft
1500m ˆ 5 km
500 ˆ 1000 ft
800 ˆ 1500m
200 ˆ 500 ft
< 800m
< 200 ft

METAR - LEAB Albacete - 15 Sep 2019 16:52 UTC - Data Source NOAA   



- Altitude de l'aérodrome : 2302 ft
- Voir les cartes d'approche
- Pas de NOTAMs connus.


LEAB - Albacete

Dernier METAR connu : 2015/08/11 08:00 LEAB 110800Z 19008KT 150V230 CAVOK 25/19 Q1017 NOSIG
TAF TAF LEAB
Valide du 15 à 15h jusqu'au 16 à 00h UTC


151400Z 1515/1524 08010KT 9999 SCT018 BKN025
PROB30
TEMPO 1515/1521 SHRA FEW040TCU
PROB30
TEMPO 1521/1524 BKN009

Source NOAA


MET'MAP, la Météo Aéronautique d'un coup d'oeil ! - Copyright ORBIFLY Décembre 2007

Développement & Programmation : Alexandra Zaïnal
Co-Développement : Marc-Olivier Méhu
Soutien technique & logistique : Manuel Goepfert
Conception & Financement : Baudouin d'Aumeries